Time;durP1;ratioP1;P1;durP2;ratioP2;P2;SDS_P1;SDS_P2;PMS_P1;PMS_P2;Temp;Humidity;BMP_temperature;BMP_pressure;BME280_temperature;BME280_humidity;BME280_pressure;Samples;Min_cycle;Max_cycle;Signal;HPM_P1;HPM_P2
2023/03/29 00:01:05;;;;;;;28.50;12.00;;;;;;;-2.39;78.42;99682.62;271154;1271;22446;-81
2023/03/29 00:07:07;;;;;;;23.80;11.30;;;;;;;-2.44;78.63;99682.25;273757;1258;22220;-81
2023/03/29 00:13:18;;;;;;;28.00;13.00;;;;;;;-2.49;79.00;99676.48;272334;1268;22460;-81
2023/03/29 00:19:25;;;;;;;33.60;13.50;;;;;;;-2.69;78.66;99679.23;273721;1268;22209;-80
2023/03/29 00:25:27;;;;;;;34.20;13.20;;;;;;;-2.79;79.14;99684.70;273726;1258;22456;-80
2023/03/29 00:31:28;;;;;;;27.30;12.20;;;;;;;-2.79;79.59;99688.58;273736;1270;22444;-80
2023/03/29 00:37:30;;;;;;;29.30;13.50;;;;;;;-2.81;79.99;99688.24;273540;1258;22411;-81
2023/03/29 00:44:29;;;;;;;35.70;13.90;;;;;;;-2.82;79.93;99691.73;273817;1272;22531;-81
2023/03/29 00:50:42;;;;;;;31.00;13.20;;;;;;;-2.85;80.04;99690.50;272468;1273;22408;-80
2023/03/29 00:56:47;;;;;;;30.40;13.50;;;;;;;-2.87;80.19;99688.73;273685;1269;23805;-81
2023/03/29 01:02:54;;;;;;;33.30;13.90;;;;;;;-2.94;80.08;99682.00;273751;1269;22242;-81
2023/03/29 01:09:02;;;;;;;36.70;15.90;;;;;;;-3.00;79.91;99678.11;273190;1268;22376;-81
2023/03/29 01:15:26;;;;;;;38.20;15.20;;;;;;;-3.06;80.02;99673.83;273711;1262;22367;-81
2023/03/29 01:21:56;;;;;;;36.50;14.60;;;;;;;-3.13;79.83;99667.77;273748;1270;22369;-81
2023/03/29 01:28:03;;;;;;;37.10;16.90;;;;;;;-3.24;79.58;99665.21;273870;1260;22513;-81
2023/03/29 01:34:10;;;;;;;32.60;14.80;;;;;;;-3.30;80.33;99664.11;273636;1266;22411;-81
2023/03/29 01:40:12;;;;;;;37.70;16.80;;;;;;;-3.40;79.84;99658.85;273846;1269;23238;-81
2023/03/29 01:46:40;;;;;;;40.70;17.60;;;;;;;-3.47;80.25;99658.16;273789;1269;23129;-82
2023/03/29 01:52:57;;;;;;;39.50;18.20;;;;;;;-3.51;80.45;99658.41;273285;1270;22601;-82
2023/03/29 01:59:06;;;;;;;41.30;18.00;;;;;;;-3.60;80.70;99656.64;271503;1270;24185;-82
2023/03/29 02:05:09;;;;;;;35.30;16.30;;;;;;;-3.80;80.33;99657.70;270662;1260;25588;-82
2023/03/29 02:11:10;;;;;;;34.70;16.50;;;;;;;-3.88;80.46;99656.88;271730;1269;22290;-82
2023/03/29 02:17:32;;;;;;;41.30;17.70;;;;;;;-3.92;80.78;99654.16;271632;1270;22363;-82
2023/03/29 02:23:40;;;;;;;39.30;17.90;;;;;;;-4.00;81.06;99654.94;273251;1269;22371;-82
2023/03/29 02:29:45;;;;;;;33.50;16.00;;;;;;;-4.07;81.36;99655.40;273492;1260;22549;-81
2023/03/29 02:35:57;;;;;;;39.10;15.10;;;;;;;-4.14;81.64;99656.17;272197;1267;22456;-82
2023/03/29 02:42:01;;;;;;;31.70;16.40;;;;;;;-4.21;81.85;99655.95;272661;1268;23720;-82
2023/03/29 02:48:05;;;;;;;36.10;16.90;;;;;;;-4.35;81.86;99661.89;272383;1268;23066;-83
2023/03/29 02:54:12;;;;;;;35.80;17.60;;;;;;;-4.47;81.93;99661.33;273560;1263;22350;-83
2023/03/29 03:00:18;;;;;;;39.10;18.10;;;;;;;-4.55;82.00;99657.70;273505;1269;22499;-83
2023/03/29 03:06:21;;;;;;;54.70;16.30;;;;;;;-4.62;82.31;99655.89;272596;1270;22457;-83
2023/03/29 03:12:22;;;;;;;29.50;15.80;;;;;;;-4.66;82.58;99655.34;273496;1269;22397;-83
2023/03/29 03:18:25;;;;;;;45.90;18.10;;;;;;;-4.71;82.73;99656.78;273271;1269;22541;-84
2023/03/29 03:24:27;;;;;;;35.00;16.80;;;;;;;-4.78;82.87;99662.44;270143;1269;22541;-84
2023/03/29 03:30:29;;;;;;;45.30;18.10;;;;;;;-4.86;83.18;99666.04;270709;1268;24203;-83
2023/03/29 03:37:10;;;;;;;40.20;17.80;;;;;;;-4.93;83.33;99666.48;270773;1260;25383;-82
2023/03/29 03:43:29;;;;;;;36.20;17.20;;;;;;;-5.02;83.46;99669.52;269959;1261;22542;-84
2023/03/29 03:49:31;;;;;;;32.90;15.40;;;;;;;-5.07;83.84;99673.98;269838;1267;23017;-82
2023/03/29 03:55:33;;;;;;;33.20;16.50;;;;;;;-5.12;84.14;99671.91;270839;1260;22544;-84
2023/03/29 04:01:48;;;;;;;35.80;16.90;;;;;;;-5.20;84.23;99672.87;269379;1261;22517;-83
2023/03/29 04:08:02;;;;;;;33.80;17.60;;;;;;;-5.30;84.35;99678.61;269730;1268;25269;-83
2023/03/29 04:14:20;;;;;;;37.20;17.20;;;;;;;-5.39;84.38;99679.14;269853;1261;22507;-84
2023/03/29 04:20:37;;;;;;;31.90;15.70;;;;;;;-5.48;84.87;99678.52;270106;1263;22551;-83
2023/03/29 04:26:39;;;;;;;39.20;17.50;;;;;;;-5.49;85.24;99675.79;269309;1260;23845;-83
2023/03/29 04:32:47;;;;;;;39.80;17.20;;;;;;;-5.52;85.31;99669.89;270388;1269;22608;-84
2023/03/29 04:38:51;;;;;;;40.20;18.10;;;;;;;-5.55;85.25;99669.55;270505;1269;25557;-84
2023/03/29 04:44:56;;;;;;;39.70;19.30;;;;;;;-5.59;85.21;99672.02;270310;1260;22872;-85
2023/03/29 04:51:08;;;;;;;38.10;18.70;;;;;;;-5.59;85.46;99671.92;269852;1260;22598;-84
2023/03/29 04:57:20;;;;;;;38.70;18.40;;;;;;;-5.57;85.74;99672.95;270546;1261;22904;-83
2023/03/29 05:03:40;;;;;;;48.80;20.90;;;;;;;-5.54;86.09;99668.59;272979;1261;22531;-84
2023/03/29 05:09:48;;;;;;;49.30;20.10;;;;;;;-5.39;86.71;99658.79;273355;1260;23726;-84
2023/03/29 05:15:50;;;;;;;48.90;23.20;;;;;;;-5.07;87.43;99654.91;273463;1260;23162;-84
2023/03/29 05:21:52;;;;;;;44.90;21.00;;;;;;;-4.67;87.87;99660.14;273391;1260;22597;-84
2023/03/29 05:27:57;;;;;;;42.70;21.30;;;;;;;-4.24;88.46;99658.23;273709;1257;22342;-81
2023/03/29 05:33:58;;;;;;;38.80;18.00;;;;;;;-3.64;88.83;99658.88;273646;1268;22421;-81
2023/03/29 05:40:05;;;;;;;34.10;16.60;;;;;;;-2.94;88.85;99659.70;273632;1268;22527;-84
2023/03/29 05:46:11;;;;;;;26.40;12.40;;;;;;;-2.28;88.20;99661.48;273495;1262;22443;-84
2023/03/29 05:52:16;;;;;;;23.00;11.40;;;;;;;-1.71;87.16;99663.46;273058;1268;23376;-84
2023/03/29 05:58:19;;;;;;;23.10;10.60;;;;;;;-1.17;86.07;99660.89;273536;1258;22228;-84
2023/03/29 06:04:23;;;;;;;19.40;10.70;;;;;;;-0.73;84.74;99661.97;273609;1268;22233;-83
2023/03/29 06:11:09;;;;;;;22.90;11.40;;;;;;;-0.43;83.52;99662.77;273134;1259;22429;-83
2023/03/29 06:17:41;;;;;;;35.90;13.00;;;;;;;-0.03;83.06;99661.40;272021;1268;25423;-82
2023/03/29 06:23:43;;;;;;;27.10;12.00;;;;;;;0.36;82.09;99665.86;273539;1268;22839;-81
2023/03/29 06:29:45;;;;;;;29.60;11.20;;;;;;;0.50;80.54;99663.87;273483;1259;22400;-81
2023/03/29 06:35:47;;;;;;;22.00;10.20;;;;;;;0.64;79.83;99668.02;273690;1268;22212;-81
2023/03/29 06:41:54;;;;;;;17.50;8.50;;;;;;;0.71;78.90;99672.52;273564;1258;22467;-82
2023/03/29 06:48:19;;;;;;;22.60;10.10;;;;;;;0.97;78.52;99676.95;272700;1257;22865;-83
2023/03/29 06:54:21;;;;;;;20.30;10.20;;;;;;;1.31;77.56;99679.52;273149;1268;26719;-83
2023/03/29 07:00:34;;;;;;;20.00;9.80;;;;;;;1.60;76.75;99678.00;273315;1258;22402;-83
2023/03/29 07:07:00;;;;;;;19.80;10.00;;;;;;;1.97;76.12;99682.77;273683;1268;22480;-83
2023/03/29 07:13:08;;;;;;;21.60;9.10;;;;;;;2.18;76.11;99688.90;272439;1267;95775;-83
2023/03/29 07:19:10;;;;;;;18.80;8.40;;;;;;;2.46;75.11;99696.34;272279;1268;22602;-83
2023/03/29 07:25:50;;;;;;;17.60;7.70;;;;;;;2.74;74.67;99695.45;270494;1264;25374;-84
2023/03/29 07:31:52;;;;;;;15.80;6.80;;;;;;;3.04;73.80;99690.60;271172;1268;22448;-87
2023/03/29 07:38:24;;;;;;;13.70;7.10;;;;;;;3.37;73.24;99685.96;271782;1268;22381;-85
2023/03/29 07:44:36;;;;;;;11.50;6.20;;;;;;;3.29;71.26;99680.08;272785;1257;22449;-85
2023/03/29 07:50:38;;;;;;;14.70;6.50;;;;;;;3.67;72.00;99674.37;273516;1257;22193;-85
2023/03/29 07:56:41;;;;;;;12.90;7.30;;;;;;;4.25;71.25;99674.34;273479;1259;22200;-86
2023/03/29 08:02:48;;;;;;;14.20;6.40;;;;;;;4.80;70.18;99671.96;273494;1261;22452;-84
2023/03/29 08:08:51;;;;;;;15.00;7.80;;;;;;;4.82;68.24;99664.38;273558;1268;22383;-84
2023/03/29 08:14:52;;;;;;;16.50;7.40;;;;;;;5.01;67.95;99659.40;273337;1255;22377;-84
2023/03/29 08:21:20;;;;;;;12.70;5.30;;;;;;;5.41;68.28;99652.02;273357;1259;22383;-86
2023/03/29 08:27:25;;;;;;;7.20;3.20;;;;;;;5.69;65.47;99648.16;273041;1256;22839;-84
2023/03/29 08:33:28;;;;;;;11.90;4.70;;;;;;;5.92;64.74;99651.97;272646;1268;22551;-86
2023/03/29 08:39:50;;;;;;;13.30;4.30;;;;;;;5.97;62.61;99652.11;271199;1268;23404;-86
2023/03/29 08:46:43;;;;;;;9.60;4.00;;;;;;;5.67;61.27;99638.08;273614;1268;22425;-86
2023/03/29 08:53:43;;;;;;;8.60;3.30;;;;;;;5.86;60.52;99639.86;273686;1268;22170;-87
2023/03/29 08:59:54;;;;;;;6.80;3.30;;;;;;;6.39;59.20;99633.98;273423;1266;22275;-87
2023/03/29 09:06:28;;;;;;;5.20;2.60;;;;;;;7.07;59.57;99625.04;273295;1268;22411;-87
2023/03/29 09:12:54;;;;;;;4.20;1.90;;;;;;;8.17;59.62;99618.50;273659;1268;22205;-88
2023/03/29 09:19:28;;;;;;;4.80;2.10;;;;;;;9.35;58.43;99612.13;273715;1268;22754;-86
2023/03/29 09:26:27;;;;;;;;;;;;;;;;;;;;;
2023/03/29 09:33:43;;;;;;;8.30;2.30;;;;;;;10.70;55.43;99610.83;272779;1268;22637;-86
2023/03/29 09:40:25;;;;;;;7.70;3.10;;;;;;;10.95;53.50;99598.58;270503;1268;22414;-88
2023/03/29 09:47:37;;;;;;;6.00;2.70;;;;;;;11.15;52.66;99596.59;270520;1268;22449;-87
2023/03/29 09:54:20;;;;;;;2.80;1.80;;;;;;;11.84;51.67;99585.32;271363;1268;22584;-87
2023/03/29 10:00:59;;;;;;;6.90;2.20;;;;;;;11.95;51.57;99581.67;272102;1268;22867;-87
2023/03/29 10:07:03;;;;;;;3.50;2.20;;;;;;;12.52;50.04;99583.78;273218;1268;22415;-86
2023/03/29 10:13:16;;;;;;;3.90;2.30;;;;;;;12.68;48.66;99574.49;272999;1268;23588;-87
2023/03/29 10:19:51;;;;;;;4.20;2.40;;;;;;;12.98;48.83;99573.50;271190;1268;23020;-86
2023/03/29 10:25:52;;;;;;;4.60;2.20;;;;;;;13.45;47.70;99573.27;270636;1258;23262;-85
2023/03/29 10:31:54;;;;;;;6.80;2.00;;;;;;;13.40;45.72;99566.00;272712;1256;22470;-85
2023/03/29 10:38:00;;;;;;;4.20;2.00;;;;;;;13.31;43.77;99560.42;273591;1268;22558;-85
2023/03/29 10:44:02;;;;;;;4.30;2.10;;;;;;;13.83;44.10;99552.34;273214;1268;22277;-85
2023/03/29 10:50:05;;;;;;;4.20;2.40;;;;;;;14.59;42.91;99555.55;273232;1268;23783;-85
2023/03/29 10:56:38;;;;;;;3.50;1.60;;;;;;;14.91;42.18;99547.06;272064;1268;22407;-84
2023/03/29 11:02:51;;;;;;;4.00;2.20;;;;;;;15.09;41.52;99539.23;272124;1268;22544;-84
2023/03/29 11:09:50;;;;;;;6.00;2.30;;;;;;;14.95;39.63;99533.13;270305;1266;22541;-85
2023/03/29 11:16:00;;;;;;;4.30;2.00;;;;;;;14.53;38.16;99525.84;273383;1267;22195;-84
2023/03/29 11:22:28;;;;;;;4.10;2.20;;;;;;;14.75;37.46;99523.55;273758;1267;22483;-84
2023/03/29 11:28:56;;;;;;;4.10;1.80;;;;;;;14.63;36.61;99514.78;273745;1266;23282;-85
2023/03/29 11:35:26;;;;;;;3.90;2.60;;;;;;;14.97;36.14;99509.75;273544;1267;23142;-85
2023/03/29 11:41:34;;;;;;;4.50;2.50;;;;;;;14.69;35.70;99499.05;273594;1260;22384;-84
2023/03/29 11:47:38;;;;;;;6.90;3.10;;;;;;;13.92;35.24;99491.48;273335;1268;23160;-83
2023/03/29 11:54:17;;;;;;;5.60;1.60;;;;;;;13.38;34.88;99484.11;272051;1268;22566;-84
2023/03/29 12:00:36;;;;;;;4.30;1.80;;;;;;;12.57;33.93;99483.57;273182;1268;22433;-85
2023/03/29 12:06:44;;;;;;;4.00;2.50;;;;;;;12.04;33.52;99477.06;273501;1260;23681;-83
2023/03/29 12:12:57;;;;;;;6.50;2.90;;;;;;;11.91;33.47;99474.38;273603;1262;22564;-84
2023/03/29 12:19:28;;;;;;;3.20;2.20;;;;;;;11.83;34.01;99464.63;272968;1258;22410;-84
2023/03/29 12:25:37;;;;;;;3.30;2.20;;;;;;;11.68;33.96;99456.51;273633;1268;22520;-85
2023/03/29 12:32:05;;;;;;;5.00;2.40;;;;;;;11.24;33.24;99444.80;273337;1263;22506;-84
2023/03/29 12:38:29;;;;;;;4.00;2.50;;;;;;;11.03;33.75;99439.92;273826;1258;22405;-84
2023/03/29 12:44:55;;;;;;;4.10;2.80;;;;;;;10.92;33.43;99435.59;273787;1268;22229;-83
2023/03/29 12:51:01;;;;;;;6.40;3.30;;;;;;;11.02;34.07;99430.90;273829;1268;23468;-84
2023/03/29 12:57:40;;;;;;;4.30;2.20;;;;;;;11.25;33.78;99421.47;273661;1268;22237;-84
2023/03/29 13:03:48;;;;;;;3.60;2.20;;;;;;;11.13;33.26;99416.59;273740;1256;22379;-84
2023/03/29 13:09:55;;;;;;;7.70;2.70;;;;;;;10.76;33.31;99412.87;273862;1268;22420;-84
2023/03/29 13:16:15;;;;;;;4.40;2.50;;;;;;;10.43;32.84;99402.98;273624;1268;22381;-84
2023/03/29 13:22:38;;;;;;;4.80;2.70;;;;;;;10.31;33.43;99394.45;273358;1268;22485;-84
2023/03/29 13:29:34;;;;;;;4.60;2.20;;;;;;;10.49;33.55;99392.73;273682;1268;22312;-85
2023/03/29 13:35:47;;;;;;;5.50;2.60;;;;;;;10.54;33.00;99383.91;272306;1268;22491;-85
2023/03/29 13:41:52;;;;;;;5.90;2.40;;;;;;;10.34;33.70;99377.40;273829;1258;22403;-85
2023/03/29 13:48:24;;;;;;;5.00;2.80;;;;;;;10.28;33.97;99369.38;273224;1269;22218;-85
2023/03/29 13:54:41;;;;;;;6.80;3.20;;;;;;;10.29;34.22;99361.98;273225;1268;22535;-84
2023/03/29 14:00:54;;;;;;;5.80;2.60;;;;;;;10.14;34.08;99352.55;273748;1268;22328;-84
2023/03/29 14:06:57;;;;;;;4.70;2.60;;;;;;;10.07;33.62;99348.42;273632;1256;23202;-84
2023/03/29 14:13:00;;;;;;;6.30;2.70;;;;;;;9.83;33.79;99343.80;273555;1268;22375;-86
2023/03/29 14:19:23;;;;;;;7.80;3.10;;;;;;;9.96;34.56;99335.53;273777;1260;23077;-85
2023/03/29 14:25:25;;;;;;;10.60;3.90;;;;;;;10.23;34.94;99334.98;273763;1268;22215;-85
2023/03/29 14:31:53;;;;;;;5.90;3.30;;;;;;;10.21;34.89;99333.63;272437;1268;22543;-83
2023/03/29 14:37:55;;;;;;;6.00;2.60;;;;;;;10.02;35.16;99333.80;272435;1258;22305;-85
2023/03/29 14:43:57;;;;;;;6.60;2.20;;;;;;;9.72;35.64;99336.00;273712;1268;22393;-84
2023/03/29 14:50:00;;;;;;;8.80;3.40;;;;;;;9.41;35.75;99338.20;272159;1268;22328;-84
2023/03/29 14:56:02;;;;;;;7.10;3.10;;;;;;;9.26;36.63;99338.09;272517;1259;22499;-85
2023/03/29 15:02:22;;;;;;;9.00;3.10;;;;;;;9.19;37.02;99334.12;273528;1269;22468;-86
2023/03/29 15:08:36;;;;;;;5.10;2.60;;;;;;;9.24;36.87;99326.20;273554;1269;22404;-85
2023/03/29 15:14:40;;;;;;;6.10;3.10;;;;;;;9.16;37.01;99323.60;273792;1268;22395;-84
2023/03/29 15:20:43;;;;;;;6.20;2.80;;;;;;;9.01;37.16;99324.75;273557;1269;23785;-86
2023/03/29 15:27:15;;;;;;;6.90;2.50;;;;;;;8.96;37.43;99325.80;273331;1268;22696;-85
2023/03/29 15:33:21;;;;;;;6.10;3.40;;;;;;;8.94;37.58;99318.36;271026;1269;22547;-84
2023/03/29 15:39:43;;;;;;;6.90;3.80;;;;;;;8.72;38.07;99314.65;270194;1263;22560;-85
2023/03/29 15:45:45;;;;;;;8.20;3.70;;;;;;;8.49;38.51;99309.27;269972;1269;22629;-84
2023/03/29 15:51:46;;;;;;;6.30;2.80;;;;;;;8.29;38.90;99298.02;272556;1259;23269;-84
2023/03/29 15:57:52;;;;;;;7.90;3.70;;;;;;;8.28;39.20;99292.30;273525;1269;23704;-85
2023/03/29 16:03:53;;;;;;;7.70;3.70;;;;;;;8.20;38.92;99294.49;273554;1269;22432;-85
2023/03/29 16:09:56;;;;;;;9.20;3.60;;;;;;;8.15;40.13;99291.15;273844;1270;22278;-85
2023/03/29 16:15:58;;;;;;;6.70;3.80;;;;;;;8.18;39.50;99284.98;273864;1259;22528;-85
2023/03/29 16:22:01;;;;;;;7.00;3.80;;;;;;;8.05;39.61;99277.27;273541;1269;22369;-84
2023/03/29 16:28:04;;;;;;;7.60;3.50;;;;;;;7.95;40.41;99278.20;273614;1269;22402;-85
2023/03/29 16:34:09;;;;;;;10.30;4.80;;;;;;;7.80;40.60;99275.86;273350;1269;22615;-84
2023/03/29 16:40:11;;;;;;;9.90;4.70;;;;;;;7.62;40.81;99275.43;271840;1269;22512;-84
2023/03/29 16:46:13;;;;;;;10.40;4.40;;;;;;;7.40;40.90;99271.80;272190;1269;22528;-85
2023/03/29 16:52:15;;;;;;;9.80;4.90;;;;;;;7.15;41.19;99268.66;272060;1269;25384;-85
2023/03/29 16:58:17;;;;;;;10.10;5.20;;;;;;;6.93;41.22;99264.14;273288;1269;22456;-84
2023/03/29 17:04:19;;;;;;;13.00;6.00;;;;;;;6.75;41.44;99259.94;273651;1268;23097;-84
2023/03/29 17:10:22;;;;;;;12.40;6.40;;;;;;;6.60;41.85;99263.20;273714;1259;22445;-84
2023/03/29 17:16:27;;;;;;;16.60;7.00;;;;;;;6.47;42.19;99261.25;273453;1268;22368;-84
2023/03/29 17:22:54;;;;;;;23.70;7.80;;;;;;;6.28;42.45;99263.52;273432;1268;22391;-84
2023/03/29 17:28:56;;;;;;;19.90;9.00;;;;;;;6.07;43.30;99269.28;265941;1263;10001258;-85
2023/03/29 17:34:58;;;;;;;18.90;8.20;;;;;;;5.71;43.95;99277.58;273282;1268;23091;-84
2023/03/29 17:41:01;;;;;;;19.00;9.70;;;;;;;5.29;44.67;99276.06;272719;1268;23115;-85
2023/03/29 17:47:04;;;;;;;20.70;10.20;;;;;;;4.97;45.04;99281.33;271952;1268;23538;-84
2023/03/29 17:53:06;;;;;;;19.20;9.00;;;;;;;4.70;45.79;99284.70;272572;1258;22451;-84
2023/03/29 17:59:08;;;;;;;22.00;10.60;;;;;;;4.51;46.12;99284.66;273003;1268;22203;-84
2023/03/29 18:05:11;;;;;;;25.00;11.30;;;;;;;4.37;46.68;99288.45;273609;1270;22406;-84
2023/03/29 18:11:17;;;;;;;21.90;10.60;;;;;;;4.28;47.12;99293.41;273580;1271;22417;-85
2023/03/29 18:17:20;;;;;;;26.90;10.90;;;;;;;4.17;48.26;99302.41;272620;1262;22587;-84
2023/03/29 18:23:24;;;;;;;28.90;12.30;;;;;;;3.97;49.09;99304.84;272678;1271;22174;-84
2023/03/29 18:29:26;;;;;;;33.40;13.90;;;;;;;3.65;49.79;99301.91;272078;1268;22572;-85
2023/03/29 18:35:28;;;;;;;46.20;16.30;;;;;;;3.53;49.53;99298.14;273322;1269;22457;-84
2023/03/29 18:41:31;;;;;;;37.00;14.50;;;;;;;3.53;50.30;99295.75;273664;1268;23111;-84
2023/03/29 18:47:33;;;;;;;38.40;14.80;;;;;;;3.38;50.28;99307.36;273487;1268;23586;-84
2023/03/29 18:53:37;;;;;;;31.00;14.20;;;;;;;3.35;50.57;99310.26;273637;1268;22521;-83
2023/03/29 18:59:39;;;;;;;25.10;11.90;;;;;;;3.42;50.13;99304.08;273403;1270;23840;-85
2023/03/29 19:05:41;;;;;;;21.40;10.30;;;;;;;3.55;49.92;99301.57;273719;1272;22451;-83
2023/03/29 19:11:46;;;;;;;22.80;11.00;;;;;;;3.58;50.38;99297.30;273501;1270;227644;-83
2023/03/29 19:18:28;;;;;;;25.40;11.60;;;;;;;3.60;50.40;99290.42;273748;1270;23946;-83
2023/03/29 19:24:30;;;;;;;21.40;10.70;;;;;;;3.61;50.97;99288.52;273700;1272;22191;-83
2023/03/29 19:30:34;;;;;;;22.90;10.50;;;;;;;3.49;51.72;99289.45;273421;1270;23294;-84
2023/03/29 19:36:37;;;;;;;26.90;10.80;;;;;;;3.30;52.22;99294.63;273584;1269;23204;-86
2023/03/29 19:42:39;;;;;;;24.40;10.20;;;;;;;3.10;52.80;99297.26;273666;1270;22492;-84
2023/03/29 19:49:02;;;;;;;22.40;10.60;;;;;;;2.93;53.05;99294.61;273369;1260;22911;-83
2023/03/29 19:55:05;;;;;;;19.40;9.90;;;;;;;2.75;53.59;99291.14;273543;1268;22707;-84
2023/03/29 20:01:07;;;;;;;28.80;13.00;;;;;;;2.50;54.31;99298.48;273633;1269;22381;-84
2023/03/29 20:07:13;;;;;;;41.40;18.90;;;;;;;2.30;55.35;99301.55;273776;1270;22320;-83
2023/03/29 20:13:29;;;;;;;45.50;21.10;;;;;;;2.09;56.42;99304.20;273738;1270;22505;-84
2023/03/29 20:19:55;;;;;;;47.70;21.20;;;;;;;1.90;56.92;99305.42;272669;1270;22596;-84
2023/03/29 20:25:57;;;;;;;39.80;18.70;;;;;;;1.76;57.22;99298.78;270625;1270;23100;-85
2023/03/29 20:31:59;;;;;;;27.90;12.20;;;;;;;1.70;57.50;99304.88;270752;1269;23253;-83
2023/03/29 20:38:00;;;;;;;24.80;10.80;;;;;;;1.93;55.83;99299.91;270844;1270;24253;-84
2023/03/29 20:44:04;;;;;;;23.60;9.90;;;;;;;2.30;55.03;99282.55;270838;1269;22548;-83
2023/03/29 20:50:09;;;;;;;26.00;10.50;;;;;;;2.48;55.40;99277.31;272491;1270;22380;-84
2023/03/29 20:56:11;;;;;;;22.00;9.50;;;;;;;2.54;55.22;99274.90;271955;1270;22536;-84
2023/03/29 21:02:19;;;;;;;24.10;9.20;;;;;;;2.52;56.56;99274.33;272430;1269;23203;-84
2023/03/29 21:08:22;;;;;;;20.00;8.50;;;;;;;2.40;56.82;99264.11;273610;1270;22428;-84
2023/03/29 21:14:25;;;;;;;51.70;22.00;;;;;;;2.20;57.68;99259.33;273545;1268;23285;-84
2023/03/29 21:20:27;;;;;;;52.70;23.40;;;;;;;1.93;58.37;99258.53;273722;1257;22713;-84
2023/03/29 21:26:35;;;;;;;51.90;22.50;;;;;;;1.71;59.24;99255.95;273544;1270;23615;-84
2023/03/29 21:33:10;;;;;;;49.00;22.90;;;;;;;1.52;59.59;99246.56;272158;1269;25241;-83
2023/03/29 21:39:12;;;;;;;53.20;23.20;;;;;;;1.35;60.12;99240.65;270469;1270;22905;-84
2023/03/29 21:45:14;;;;;;;43.40;18.70;;;;;;;1.18;60.70;99241.34;270084;1270;22853;-83
2023/03/29 21:51:16;;;;;;;44.10;20.50;;;;;;;1.10;61.32;99240.84;270922;1270;22542;-84
2023/03/29 21:57:18;;;;;;;46.60;20.20;;;;;;;0.95;62.17;99244.54;273353;1270;22433;-84
2023/03/29 22:03:19;;;;;;;49.90;21.90;;;;;;;0.80;62.77;99248.35;271284;1268;22563;-84
2023/03/29 22:09:45;;;;;;;53.90;23.80;;;;;;;0.69;63.29;99241.51;270057;1268;23374;-83
2023/03/29 22:15:52;;;;;;;55.30;26.10;;;;;;;0.62;63.82;99238.88;270334;1269;24334;-83
2023/03/29 22:22:00;;;;;;;59.50;27.50;;;;;;;0.53;64.02;99233.77;273042;1269;22267;-84
2023/03/29 22:28:02;;;;;;;57.70;26.70;;;;;;;0.37;64.43;99239.08;273571;1268;22411;-84
2023/03/29 22:34:04;;;;;;;57.30;26.50;;;;;;;0.25;64.41;99231.61;272969;1268;22769;-84
2023/03/29 22:40:27;;;;;;;49.70;21.10;;;;;;;0.13;64.77;99231.73;271505;1260;22431;-84
2023/03/29 22:46:29;;;;;;;36.60;18.20;;;;;;;0.06;65.70;99228.72;270679;1269;22535;-85
2023/03/29 22:52:32;;;;;;;45.50;20.90;;;;;;;-0.00;65.78;99225.40;269745;1268;25303;-84
2023/03/29 22:58:55;;;;;;;43.80;21.90;;;;;;;-0.11;65.94;99223.95;270085;1258;23823;-84
2023/03/29 23:04:57;;;;;;;54.30;22.80;;;;;;;-0.17;66.29;99217.83;273191;1268;22391;-84
2023/03/29 23:11:19;;;;;;;44.90;20.20;;;;;;;-0.23;66.45;99218.86;273705;1268;22410;-84
2023/03/29 23:17:20;;;;;;;35.20;17.00;;;;;;;-0.18;66.90;99208.54;273667;1268;22487;-85
2023/03/29 23:23:23;;;;;;;37.10;15.90;;;;;;;-0.08;67.90;99205.80;273539;1270;22198;-84
2023/03/29 23:29:25;;;;;;;33.10;14.50;;;;;;;-0.00;68.53;99205.17;273674;1268;22263;-84
2023/03/29 23:35:27;;;;;;;27.60;13.00;;;;;;;0.08;69.15;99200.02;273523;1267;22442;-84
2023/03/29 23:41:30;;;;;;;31.70;14.50;;;;;;;0.20;69.77;99189.05;273692;1268;23650;-83
2023/03/29 23:47:53;;;;;;;29.70;13.10;;;;;;;0.34;70.43;99183.52;273491;1268;22676;-84
2023/03/29 23:53:55;;;;;;;26.60;11.50;;;;;;;0.52;71.15;99175.15;273618;1268;22570;-84
2023/03/29 23:59:59;;;;;;;28.80;14.20;;;;;;;0.64;70.71;99169.86;270977;1268;22551;-84
